sensor_id;sensor_type;location;lat;lon;timestamp;P1;durP1;ratioP1;P2;durP2;ratioP2
24585;SDS011;12743;52.262;6.172;2023-03-20T00:00:46;32.75;;;14.07;;
24585;SDS011;12743;52.262;6.172;2023-03-20T00:03:15;34.73;;;14.43;;
24585;SDS011;12743;52.262;6.172;2023-03-20T00:05:42;31.33;;;14.07;;
24585;SDS011;12743;52.262;6.172;2023-03-20T00:08:09;32.35;;;13.13;;
24585;SDS011;12743;52.262;6.172;2023-03-20T00:10:37;31.05;;;12.18;;
24585;SDS011;12743;52.262;6.172;2023-03-20T00:13:06;23.40;;;10.52;;
24585;SDS011;12743;52.262;6.172;2023-03-20T00:15:48;24.57;;;10.77;;
24585;SDS011;12743;52.262;6.172;2023-03-20T00:18:15;24.58;;;10.20;;
24585;SDS011;12743;52.262;6.172;2023-03-20T00:20:44;20.20;;;9.25;;
24585;SDS011;12743;52.262;6.172;2023-03-20T00:23:12;18.58;;;8.68;;
24585;SDS011;12743;52.262;6.172;2023-03-20T00:25:39;19.80;;;8.25;;
24585;SDS011;12743;52.262;6.172;2023-03-20T00:28:28;18.80;;;8.53;;
24585;SDS011;12743;52.262;6.172;2023-03-20T00:33:54;18.42;;;8.32;;
24585;SDS011;12743;52.262;6.172;2023-03-20T00:36:23;22.30;;;7.97;;
24585;SDS011;12743;52.262;6.172;2023-03-20T00:38:49;19.27;;;8.32;;
24585;SDS011;12743;52.262;6.172;2023-03-20T00:41:21;16.50;;;8.57;;
24585;SDS011;12743;52.262;6.172;2023-03-20T00:43:52;18.35;;;7.82;;
24585;SDS011;12743;52.262;6.172;2023-03-20T00:46:24;15.27;;;6.60;;
24585;SDS011;12743;52.262;6.172;2023-03-20T00:48:51;17.48;;;7.18;;
24585;SDS011;12743;52.262;6.172;2023-03-20T00:51:18;14.63;;;6.60;;
24585;SDS011;12743;52.262;6.172;2023-03-20T00:53:46;14.40;;;6.53;;
24585;SDS011;12743;52.262;6.172;2023-03-20T00:56:47;15.40;;;5.80;;
24585;SDS011;12743;52.262;6.172;2023-03-20T00:59:08;13.43;;;5.65;;
24585;SDS011;12743;52.262;6.172;2023-03-20T01:01:42;13.40;;;5.32;;
24585;SDS011;12743;52.262;6.172;2023-03-20T01:04:10;18.15;;;5.70;;
24585;SDS011;12743;52.262;6.172;2023-03-20T01:06:39;14.23;;;5.63;;
24585;SDS011;12743;52.262;6.172;2023-03-20T01:09:05;14.95;;;5.93;;
24585;SDS011;12743;52.262;6.172;2023-03-20T01:11:32;10.50;;;4.70;;
24585;SDS011;12743;52.262;6.172;2023-03-20T01:13:59;13.20;;;5.13;;
24585;SDS011;12743;52.262;6.172;2023-03-20T01:16:25;12.88;;;5.30;;
24585;SDS011;12743;52.262;6.172;2023-03-20T01:18:52;15.27;;;5.77;;
24585;SDS011;12743;52.262;6.172;2023-03-20T01:21:19;14.93;;;5.28;;
24585;SDS011;12743;52.262;6.172;2023-03-20T01:23:47;12.75;;;4.95;;
24585;SDS011;12743;52.262;6.172;2023-03-20T01:26:22;15.50;;;5.45;;
24585;SDS011;12743;52.262;6.172;2023-03-20T01:28:54;16.42;;;5.28;;
24585;SDS011;12743;52.262;6.172;2023-03-20T01:31:21;15.17;;;5.13;;
24585;SDS011;12743;52.262;6.172;2023-03-20T01:33:48;15.15;;;5.82;;
24585;SDS011;12743;52.262;6.172;2023-03-20T01:36:15;13.95;;;5.80;;
24585;SDS011;12743;52.262;6.172;2023-03-20T01:38:45;14.68;;;5.30;;
24585;SDS011;12743;52.262;6.172;2023-03-20T01:41:17;14.93;;;5.75;;
24585;SDS011;12743;52.262;6.172;2023-03-20T01:43:44;14.30;;;6.03;;
24585;SDS011;12743;52.262;6.172;2023-03-20T01:46:15;15.90;;;5.95;;
24585;SDS011;12743;52.262;6.172;2023-03-20T01:51:19;16.17;;;6.35;;
24585;SDS011;12743;52.262;6.172;2023-03-20T01:53:51;17.42;;;6.82;;
24585;SDS011;12743;52.262;6.172;2023-03-20T01:56:23;19.13;;;6.30;;
24585;SDS011;12743;52.262;6.172;2023-03-20T01:59:34;17.30;;;6.75;;
24585;SDS011;12743;52.262;6.172;2023-03-20T02:01:45;20.70;;;7.63;;
24585;SDS011;12743;52.262;6.172;2023-03-20T02:04:15;18.55;;;7.50;;
24585;SDS011;12743;52.262;6.172;2023-03-20T02:06:50;20.67;;;9.25;;
24585;SDS011;12743;52.262;6.172;2023-03-20T02:09:27;19.47;;;8.03;;
24585;SDS011;12743;52.262;6.172;2023-03-20T02:11:54;20.42;;;9.85;;
24585;SDS011;12743;52.262;6.172;2023-03-20T02:14:22;21.70;;;10.52;;
24585;SDS011;12743;52.262;6.172;2023-03-20T02:16:57;21.33;;;10.00;;
24585;SDS011;12743;52.262;6.172;2023-03-20T02:37:23;27.23;;;12.40;;
24585;SDS011;12743;52.262;6.172;2023-03-20T02:45:50;21.85;;;10.75;;
24585;SDS011;12743;52.262;6.172;2023-03-20T02:48:43;25.80;;;11.50;;
24585;SDS011;12743;52.262;6.172;2023-03-20T02:51:31;22.60;;;10.03;;
24585;SDS011;12743;52.262;6.172;2023-03-20T02:54:05;20.60;;;10.35;;
24585;SDS011;12743;52.262;6.172;2023-03-20T03:05:46;22.33;;;11.47;;
24585;SDS011;12743;52.262;6.172;2023-03-20T03:08:16;20.83;;;9.75;;
24585;SDS011;12743;52.262;6.172;2023-03-20T03:10:50;22.52;;;10.05;;
24585;SDS011;12743;52.262;6.172;2023-03-20T03:13:22;22.15;;;10.60;;
24585;SDS011;12743;52.262;6.172;2023-03-20T03:15:55;21.20;;;10.73;;
24585;SDS011;12743;52.262;6.172;2023-03-20T03:18:28;18.97;;;10.17;;
24585;SDS011;12743;52.262;6.172;2023-03-20T03:20:58;20.67;;;10.77;;
24585;SDS011;12743;52.262;6.172;2023-03-20T03:23:29;20.33;;;9.93;;
24585;SDS011;12743;52.262;6.172;2023-03-20T03:26:08;21.65;;;10.13;;
24585;SDS011;12743;52.262;6.172;2023-03-20T03:28:45;17.42;;;9.45;;
24585;SDS011;12743;52.262;6.172;2023-03-20T03:31:15;17.73;;;8.67;;
24585;SDS011;12743;52.262;6.172;2023-03-20T03:33:44;16.85;;;7.93;;
24585;SDS011;12743;52.262;6.172;2023-03-20T03:41:48;20.20;;;7.80;;
24585;SDS011;12743;52.262;6.172;2023-03-20T03:44:25;15.73;;;7.63;;
24585;SDS011;12743;52.262;6.172;2023-03-20T03:46:57;17.17;;;8.23;;
24585;SDS011;12743;52.262;6.172;2023-03-20T03:49:29;14.50;;;6.95;;
24585;SDS011;12743;52.262;6.172;2023-03-20T03:52:00;15.63;;;6.93;;
24585;SDS011;12743;52.262;6.172;2023-03-20T03:54:39;15.75;;;6.72;;
24585;SDS011;12743;52.262;6.172;2023-03-20T03:57:36;15.93;;;7.23;;
24585;SDS011;12743;52.262;6.172;2023-03-20T04:00:11;13.40;;;6.88;;
24585;SDS011;12743;52.262;6.172;2023-03-20T04:02:42;15.93;;;6.38;;
24585;SDS011;12743;52.262;6.172;2023-03-20T04:05:11;15.85;;;6.30;;
24585;SDS011;12743;52.262;6.172;2023-03-20T04:07:43;16.08;;;6.28;;
24585;SDS011;12743;52.262;6.172;2023-03-20T04:10:11;12.17;;;5.50;;
24585;SDS011;12743;52.262;6.172;2023-03-20T04:12:40;14.35;;;5.72;;
24585;SDS011;12743;52.262;6.172;2023-03-20T04:15:09;11.77;;;4.97;;
24585;SDS011;12743;52.262;6.172;2023-03-20T04:17:37;11.23;;;4.53;;
24585;SDS011;12743;52.262;6.172;2023-03-20T04:20:05;13.90;;;4.22;;
24585;SDS011;12743;52.262;6.172;2023-03-20T04:22:33;9.73;;;4.03;;
24585;SDS011;12743;52.262;6.172;2023-03-20T04:25:13;10.18;;;4.32;;
24585;SDS011;12743;52.262;6.172;2023-03-20T04:27:45;13.57;;;4.03;;
24585;SDS011;12743;52.262;6.172;2023-03-20T04:30:21;10.48;;;3.38;;
24585;SDS011;12743;52.262;6.172;2023-03-20T04:33:06;12.43;;;3.83;;
24585;SDS011;12743;52.262;6.172;2023-03-20T04:35:46;9.67;;;3.43;;
24585;SDS011;12743;52.262;6.172;2023-03-20T04:38:15;9.10;;;3.38;;
24585;SDS011;12743;52.262;6.172;2023-03-20T04:40:43;12.55;;;3.00;;
24585;SDS011;12743;52.262;6.172;2023-03-20T04:43:10;10.40;;;3.72;;
24585;SDS011;12743;52.262;6.172;2023-03-20T04:45:37;8.63;;;3.03;;
24585;SDS011;12743;52.262;6.172;2023-03-20T04:48:06;8.23;;;2.97;;
24585;SDS011;12743;52.262;6.172;2023-03-20T04:50:34;9.05;;;3.35;;
24585;SDS011;12743;52.262;6.172;2023-03-20T04:53:01;12.70;;;4.18;;
24585;SDS011;12743;52.262;6.172;2023-03-20T04:55:28;10.75;;;3.88;;
24585;SDS011;12743;52.262;6.172;2023-03-20T04:57:54;9.68;;;3.40;;
24585;SDS011;12743;52.262;6.172;2023-03-20T05:00:22;11.40;;;3.33;;
24585;SDS011;12743;52.262;6.172;2023-03-20T05:02:49;11.52;;;3.97;;
24585;SDS011;12743;52.262;6.172;2023-03-20T05:05:16;8.77;;;3.72;;
24585;SDS011;12743;52.262;6.172;2023-03-20T05:07:43;10.23;;;3.03;;
24585;SDS011;12743;52.262;6.172;2023-03-20T05:10:15;9.38;;;3.55;;
24585;SDS011;12743;52.262;6.172;2023-03-20T05:12:49;11.87;;;4.03;;
24585;SDS011;12743;52.262;6.172;2023-03-20T05:15:22;10.13;;;3.50;;
24585;SDS011;12743;52.262;6.172;2023-03-20T05:17:48;12.10;;;4.03;;
24585;SDS011;12743;52.262;6.172;2023-03-20T05:20:35;14.20;;;3.65;;
24585;SDS011;12743;52.262;6.172;2023-03-20T05:23:25;12.60;;;4.35;;
24585;SDS011;12743;52.262;6.172;2023-03-20T05:26:18;12.47;;;4.70;;
24585;SDS011;12743;52.262;6.172;2023-03-20T05:29:03;14.77;;;4.38;;
24585;SDS011;12743;52.262;6.172;2023-03-20T05:31:32;10.15;;;4.43;;
24585;SDS011;12743;52.262;6.172;2023-03-20T05:34:13;15.38;;;4.70;;
24585;SDS011;12743;52.262;6.172;2023-03-20T05:37:04;13.13;;;4.32;;
24585;SDS011;12743;52.262;6.172;2023-03-20T05:39:46;15.47;;;4.87;;
24585;SDS011;12743;52.262;6.172;2023-03-20T05:42:31;13.65;;;4.55;;
24585;SDS011;12743;52.262;6.172;2023-03-20T05:45:17;15.20;;;5.10;;
24585;SDS011;12743;52.262;6.172;2023-03-20T05:47:44;16.00;;;4.72;;
24585;SDS011;12743;52.262;6.172;2023-03-20T05:50:33;16.52;;;6.00;;
24585;SDS011;12743;52.262;6.172;2023-03-20T05:53:12;16.07;;;6.40;;
24585;SDS011;12743;52.262;6.172;2023-03-20T05:55:53;15.50;;;5.78;;
24585;SDS011;12743;52.262;6.172;2023-03-20T05:58:37;20.30;;;7.30;;
24585;SDS011;12743;52.262;6.172;2023-03-20T06:01:32;16.05;;;6.80;;
24585;SDS011;12743;52.262;6.172;2023-03-20T06:04:19;18.85;;;7.57;;
24585;SDS011;12743;52.262;6.172;2023-03-20T06:07:01;20.93;;;7.20;;
24585;SDS011;12743;52.262;6.172;2023-03-20T06:09:28;16.73;;;7.88;;
24585;SDS011;12743;52.262;6.172;2023-03-20T06:11:56;21.80;;;9.25;;
24585;SDS011;12743;52.262;6.172;2023-03-20T06:14:22;18.67;;;7.85;;
24585;SDS011;12743;52.262;6.172;2023-03-20T06:16:55;25.83;;;9.15;;
24585;SDS011;12743;52.262;6.172;2023-03-20T06:19:23;26.80;;;10.40;;
24585;SDS011;12743;52.262;6.172;2023-03-20T06:21:49;22.00;;;9.63;;
24585;SDS011;12743;52.262;6.172;2023-03-20T06:24:19;21.52;;;9.30;;
24585;SDS011;12743;52.262;6.172;2023-03-20T06:26:46;22.83;;;9.18;;
24585;SDS011;12743;52.262;6.172;2023-03-20T06:29:12;20.90;;;9.02;;
24585;SDS011;12743;52.262;6.172;2023-03-20T06:31:39;21.43;;;9.27;;
24585;SDS011;12743;52.262;6.172;2023-03-20T06:34:11;20.05;;;8.90;;
24585;SDS011;12743;52.262;6.172;2023-03-20T06:36:42;23.65;;;9.73;;
24585;SDS011;12743;52.262;6.172;2023-03-20T06:39:16;20.23;;;9.30;;
24585;SDS011;12743;52.262;6.172;2023-03-20T06:41:43;21.35;;;9.57;;
24585;SDS011;12743;52.262;6.172;2023-03-20T06:44:09;25.40;;;10.43;;
24585;SDS011;12743;52.262;6.172;2023-03-20T06:46:59;21.67;;;8.82;;
24585;SDS011;12743;52.262;6.172;2023-03-20T06:49:26;25.05;;;11.00;;
24585;SDS011;12743;52.262;6.172;2023-03-20T06:51:54;19.55;;;8.57;;
24585;SDS011;12743;52.262;6.172;2023-03-20T06:54:23;21.27;;;8.38;;
24585;SDS011;12743;52.262;6.172;2023-03-20T06:56:50;21.70;;;8.50;;
24585;SDS011;12743;52.262;6.172;2023-03-20T06:59:19;22.35;;;8.23;;
24585;SDS011;12743;52.262;6.172;2023-03-20T07:01:46;19.83;;;8.15;;
24585;SDS011;12743;52.262;6.172;2023-03-20T07:04:13;18.75;;;8.07;;
24585;SDS011;12743;52.262;6.172;2023-03-20T07:06:46;18.27;;;8.13;;
24585;SDS011;12743;52.262;6.172;2023-03-20T07:09:12;17.80;;;7.27;;
24585;SDS011;12743;52.262;6.172;2023-03-20T07:11:39;18.52;;;8.07;;
24585;SDS011;12743;52.262;6.172;2023-03-20T07:14:07;21.77;;;8.30;;
24585;SDS011;12743;52.262;6.172;2023-03-20T07:16:47;18.17;;;8.05;;
24585;SDS011;12743;52.262;6.172;2023-03-20T07:19:14;17.02;;;7.13;;
24585;SDS011;12743;52.262;6.172;2023-03-20T07:21:43;18.97;;;7.30;;
24585;SDS011;12743;52.262;6.172;2023-03-20T07:24:12;17.88;;;7.60;;
24585;SDS011;12743;52.262;6.172;2023-03-20T07:26:39;16.92;;;6.93;;
24585;SDS011;12743;52.262;6.172;2023-03-20T07:29:06;14.60;;;6.43;;
24585;SDS011;12743;52.262;6.172;2023-03-20T07:31:34;17.00;;;6.88;;
24585;SDS011;12743;52.262;6.172;2023-03-20T07:34:13;16.50;;;6.90;;
24585;SDS011;12743;52.262;6.172;2023-03-20T07:36:41;17.10;;;6.20;;
24585;SDS011;12743;52.262;6.172;2023-03-20T07:39:10;17.30;;;5.97;;
24585;SDS011;12743;52.262;6.172;2023-03-20T07:41:44;17.67;;;6.18;;
24585;SDS011;12743;52.262;6.172;2023-03-20T07:44:23;18.17;;;6.72;;
24585;SDS011;12743;52.262;6.172;2023-03-20T07:46:51;18.53;;;6.50;;
24585;SDS011;12743;52.262;6.172;2023-03-20T07:49:21;13.00;;;6.22;;
24585;SDS011;12743;52.262;6.172;2023-03-20T07:51:48;18.58;;;6.15;;
24585;SDS011;12743;52.262;6.172;2023-03-20T07:54:15;16.85;;;6.13;;
24585;SDS011;12743;52.262;6.172;2023-03-20T07:56:42;16.75;;;5.60;;
24585;SDS011;12743;52.262;6.172;2023-03-20T07:59:09;17.83;;;6.47;;
24585;SDS011;12743;52.262;6.172;2023-03-20T08:01:36;13.88;;;5.78;;
24585;SDS011;12743;52.262;6.172;2023-03-20T08:04:02;18.25;;;6.70;;
24585;SDS011;12743;52.262;6.172;2023-03-20T08:06:29;15.70;;;5.97;;
24585;SDS011;12743;52.262;6.172;2023-03-20T08:08:56;16.08;;;6.63;;
24585;SDS011;12743;52.262;6.172;2023-03-20T08:11:23;13.07;;;5.83;;
24585;SDS011;12743;52.262;6.172;2023-03-20T08:13:49;14.02;;;6.07;;
24585;SDS011;12743;52.262;6.172;2023-03-20T08:16:16;19.90;;;6.93;;
24585;SDS011;12743;52.262;6.172;2023-03-20T08:18:42;16.02;;;6.60;;
24585;SDS011;12743;52.262;6.172;2023-03-20T08:21:09;19.40;;;6.32;;
24585;SDS011;12743;52.262;6.172;2023-03-20T08:23:36;21.40;;;6.47;;
24585;SDS011;12743;52.262;6.172;2023-03-20T08:26:02;18.60;;;6.43;;
24585;SDS011;12743;52.262;6.172;2023-03-20T08:28:29;15.73;;;6.25;;
24585;SDS011;12743;52.262;6.172;2023-03-20T08:31:12;16.15;;;6.63;;
24585;SDS011;12743;52.262;6.172;2023-03-20T08:33:39;14.15;;;6.15;;
24585;SDS011;12743;52.262;6.172;2023-03-20T08:36:06;18.30;;;7.17;;
24585;SDS011;12743;52.262;6.172;2023-03-20T08:38:33;16.45;;;5.57;;
24585;SDS011;12743;52.262;6.172;2023-03-20T08:40:59;21.40;;;6.18;;
24585;SDS011;12743;52.262;6.172;2023-03-20T08:43:26;17.85;;;6.60;;
24585;SDS011;12743;52.262;6.172;2023-03-20T08:45:53;17.02;;;6.15;;
24585;SDS011;12743;52.262;6.172;2023-03-20T08:48:19;16.00;;;6.60;;
24585;SDS011;12743;52.262;6.172;2023-03-20T08:50:46;19.50;;;7.03;;
24585;SDS011;12743;52.262;6.172;2023-03-20T08:53:12;14.65;;;6.18;;
24585;SDS011;12743;52.262;6.172;2023-03-20T08:55:39;18.38;;;6.38;;
24585;SDS011;12743;52.262;6.172;2023-03-20T08:58:06;14.65;;;6.30;;
24585;SDS011;12743;52.262;6.172;2023-03-20T09:00:33;22.87;;;7.17;;
24585;SDS011;12743;52.262;6.172;2023-03-20T09:02:59;16.73;;;6.68;;
24585;SDS011;12743;52.262;6.172;2023-03-20T09:05:26;12.07;;;5.45;;
24585;SDS011;12743;52.262;6.172;2023-03-20T09:07:52;14.77;;;6.13;;
24585;SDS011;12743;52.262;6.172;2023-03-20T09:10:19;14.50;;;5.80;;
24585;SDS011;12743;52.262;6.172;2023-03-20T09:12:46;15.97;;;6.20;;
24585;SDS011;12743;52.262;6.172;2023-03-20T09:15:12;15.20;;;6.47;;
24585;SDS011;12743;52.262;6.172;2023-03-20T09:17:39;17.67;;;6.65;;
24585;SDS011;12743;52.262;6.172;2023-03-20T09:20:06;18.45;;;6.68;;
24585;SDS011;12743;52.262;6.172;2023-03-20T09:22:33;16.50;;;6.63;;
24585;SDS011;12743;52.262;6.172;2023-03-20T09:25:00;15.77;;;5.63;;
24585;SDS011;12743;52.262;6.172;2023-03-20T09:27:27;17.70;;;7.13;;
24585;SDS011;12743;52.262;6.172;2023-03-20T09:29:53;17.70;;;6.28;;
24585;SDS011;12743;52.262;6.172;2023-03-20T09:32:20;14.32;;;4.90;;
24585;SDS011;12743;52.262;6.172;2023-03-20T09:34:46;17.13;;;6.47;;
24585;SDS011;12743;52.262;6.172;2023-03-20T09:37:13;17.73;;;6.63;;
24585;SDS011;12743;52.262;6.172;2023-03-20T09:39:40;18.38;;;5.57;;
24585;SDS011;12743;52.262;6.172;2023-03-20T09:45:08;14.10;;;5.20;;
24585;SDS011;12743;52.262;6.172;2023-03-20T09:50:35;16.57;;;5.50;;
24585;SDS011;12743;52.262;6.172;2023-03-20T09:55:52;16.08;;;5.65;;
24585;SDS011;12743;52.262;6.172;2023-03-20T09:58:20;15.50;;;5.25;;
24585;SDS011;12743;52.262;6.172;2023-03-20T10:00:51;14.43;;;4.38;;
24585;SDS011;12743;52.262;6.172;2023-03-20T10:03:24;16.27;;;5.00;;
24585;SDS011;12743;52.262;6.172;2023-03-20T10:05:56;15.55;;;5.32;;
24585;SDS011;12743;52.262;6.172;2023-03-20T10:08:27;10.57;;;4.60;;
24585;SDS011;12743;52.262;6.172;2023-03-20T10:13:34;13.00;;;4.47;;
24585;SDS011;12743;52.262;6.172;2023-03-20T10:16:29;11.33;;;3.87;;
24585;SDS011;12743;52.262;6.172;2023-03-20T10:19:22;10.32;;;3.58;;
24585;SDS011;12743;52.262;6.172;2023-03-20T10:22:07;10.25;;;3.25;;
24585;SDS011;12743;52.262;6.172;2023-03-20T10:24:39;12.95;;;3.70;;
24585;SDS011;12743;52.262;6.172;2023-03-20T10:27:25;10.18;;;3.38;;
24585;SDS011;12743;52.262;6.172;2023-03-20T10:33:14;7.97;;;2.20;;
24585;SDS011;12743;52.262;6.172;2023-03-20T10:38:57;8.43;;;2.38;;
24585;SDS011;12743;52.262;6.172;2023-03-20T10:41:31;9.32;;;2.40;;
24585;SDS011;12743;52.262;6.172;2023-03-20T10:44:00;9.10;;;2.23;;
24585;SDS011;12743;52.262;6.172;2023-03-20T10:46:31;8.57;;;2.70;;
24585;SDS011;12743;52.262;6.172;2023-03-20T10:49:04;8.05;;;3.10;;
24585;SDS011;12743;52.262;6.172;2023-03-20T10:51:46;8.52;;;2.60;;
24585;SDS011;12743;52.262;6.172;2023-03-20T10:57:21;8.57;;;2.47;;
24585;SDS011;12743;52.262;6.172;2023-03-20T10:59:50;9.65;;;2.78;;
24585;SDS011;12743;52.262;6.172;2023-03-20T11:02:19;9.07;;;3.10;;
24585;SDS011;12743;52.262;6.172;2023-03-20T11:04:47;7.05;;;2.70;;
24585;SDS011;12743;52.262;6.172;2023-03-20T11:10:13;11.90;;;3.30;;
24585;SDS011;12743;52.262;6.172;2023-03-20T11:12:43;8.32;;;2.40;;
24585;SDS011;12743;52.262;6.172;2023-03-20T11:17:57;8.77;;;3.10;;
24585;SDS011;12743;52.262;6.172;2023-03-20T11:20:25;9.25;;;2.63;;
24585;SDS011;12743;52.262;6.172;2023-03-20T11:22:56;9.30;;;3.13;;
24585;SDS011;12743;52.262;6.172;2023-03-20T11:25:29;9.88;;;2.67;;
24585;SDS011;12743;52.262;6.172;2023-03-20T11:30:44;7.05;;;2.78;;
24585;SDS011;12743;52.262;6.172;2023-03-20T11:33:29;9.15;;;2.65;;
24585;SDS011;12743;52.262;6.172;2023-03-20T11:35:56;8.43;;;2.00;;
24585;SDS011;12743;52.262;6.172;2023-03-20T11:38:24;10.27;;;2.63;;
24585;SDS011;12743;52.262;6.172;2023-03-20T11:40:51;9.65;;;2.35;;
24585;SDS011;12743;52.262;6.172;2023-03-20T11:43:20;9.23;;;2.55;;
24585;SDS011;12743;52.262;6.172;2023-03-20T11:45:57;10.35;;;2.63;;
24585;SDS011;12743;52.262;6.172;2023-03-20T11:48:35;10.13;;;2.67;;
24585;SDS011;12743;52.262;6.172;2023-03-20T11:56:03;9.02;;;2.70;;
24585;SDS011;12743;52.262;6.172;2023-03-20T11:58:33;8.95;;;2.67;;
24585;SDS011;12743;52.262;6.172;2023-03-20T12:01:03;7.80;;;2.43;;
24585;SDS011;12743;52.262;6.172;2023-03-20T12:06:21;7.50;;;1.70;;
24585;SDS011;12743;52.262;6.172;2023-03-20T12:08:56;9.05;;;2.20;;
24585;SDS011;12743;52.262;6.172;2023-03-20T12:14:27;6.30;;;1.83;;
24585;SDS011;12743;52.262;6.172;2023-03-20T12:17:04;10.70;;;2.35;;
24585;SDS011;12743;52.262;6.172;2023-03-20T12:19:44;9.63;;;2.35;;
24585;SDS011;12743;52.262;6.172;2023-03-20T12:22:22;6.85;;;1.88;;
24585;SDS011;12743;52.262;6.172;2023-03-20T12:25:03;10.32;;;2.55;;
24585;SDS011;12743;52.262;6.172;2023-03-20T12:27:42;6.53;;;2.07;;
24585;SDS011;12743;52.262;6.172;2023-03-20T12:32:51;7.75;;;2.03;;
24585;SDS011;12743;52.262;6.172;2023-03-20T12:35:30;11.35;;;2.40;;
24585;SDS011;12743;52.262;6.172;2023-03-20T12:38:00;8.23;;;2.45;;
24585;SDS011;12743;52.262;6.172;2023-03-20T12:40:31;13.90;;;3.07;;
24585;SDS011;12743;52.262;6.172;2023-03-20T12:43:10;7.32;;;2.53;;
24585;SDS011;12743;52.262;6.172;2023-03-20T12:45:56;11.73;;;3.10;;
24585;SDS011;12743;52.262;6.172;2023-03-20T12:48:46;10.43;;;2.78;;
24585;SDS011;12743;52.262;6.172;2023-03-20T12:51:25;8.85;;;3.00;;
24585;SDS011;12743;52.262;6.172;2023-03-20T12:57:01;12.23;;;4.20;;
24585;SDS011;12743;52.262;6.172;2023-03-20T13:13:39;13.13;;;4.70;;
24585;SDS011;12743;52.262;6.172;2023-03-20T13:19:08;16.65;;;4.45;;
24585;SDS011;12743;52.262;6.172;2023-03-20T13:29:37;15.43;;;5.40;;
24585;SDS011;12743;52.262;6.172;2023-03-20T13:38:13;13.00;;;4.90;;
24585;SDS011;12743;52.262;6.172;2023-03-20T13:40:44;16.23;;;5.60;;
24585;SDS011;12743;52.262;6.172;2023-03-20T13:43:15;16.30;;;6.43;;
24585;SDS011;12743;52.262;6.172;2023-03-20T13:45:43;11.90;;;6.10;;
24585;SDS011;12743;52.262;6.172;2023-03-20T13:48:29;16.03;;;5.80;;
24585;SDS011;12743;52.262;6.172;2023-03-20T13:51:05;16.60;;;6.22;;
24585;SDS011;12743;52.262;6.172;2023-03-20T13:56:53;18.83;;;7.60;;
24585;SDS011;12743;52.262;6.172;2023-03-20T14:04:49;18.90;;;6.72;;
24585;SDS011;12743;52.262;6.172;2023-03-20T14:07:37;20.17;;;8.25;;
24585;SDS011;12743;52.262;6.172;2023-03-20T14:12:53;21.20;;;7.55;;
24585;SDS011;12743;52.262;6.172;2023-03-20T14:15:22;18.97;;;7.83;;
24585;SDS011;12743;52.262;6.172;2023-03-20T14:17:53;20.13;;;8.20;;
24585;SDS011;12743;52.262;6.172;2023-03-20T14:20:36;20.55;;;8.05;;
24585;SDS011;12743;52.262;6.172;2023-03-20T14:23:04;16.92;;;7.60;;
24585;SDS011;12743;52.262;6.172;2023-03-20T14:25:34;22.30;;;8.80;;
24585;SDS011;12743;52.262;6.172;2023-03-20T14:30:44;21.23;;;8.82;;
24585;SDS011;12743;52.262;6.172;2023-03-20T14:35:49;19.63;;;8.02;;
24585;SDS011;12743;52.262;6.172;2023-03-20T14:38:38;17.58;;;8.18;;
24585;SDS011;12743;52.262;6.172;2023-03-20T14:41:37;18.47;;;8.30;;
24585;SDS011;12743;52.262;6.172;2023-03-20T14:44:27;18.33;;;7.82;;
24585;SDS011;12743;52.262;6.172;2023-03-20T14:47:21;21.45;;;8.35;;
24585;SDS011;12743;52.262;6.172;2023-03-20T14:49:56;21.20;;;8.25;;
24585;SDS011;12743;52.262;6.172;2023-03-20T14:52:31;21.17;;;8.15;;
24585;SDS011;12743;52.262;6.172;2023-03-20T14:57:45;17.40;;;8.77;;
24585;SDS011;12743;52.262;6.172;2023-03-20T15:00:22;20.70;;;9.32;;
24585;SDS011;12743;52.262;6.172;2023-03-20T15:02:51;19.67;;;8.98;;
24585;SDS011;12743;52.262;6.172;2023-03-20T15:05:23;20.17;;;9.05;;
24585;SDS011;12743;52.262;6.172;2023-03-20T15:08:01;22.23;;;10.17;;
24585;SDS011;12743;52.262;6.172;2023-03-20T15:10:33;20.92;;;9.32;;
24585;SDS011;12743;52.262;6.172;2023-03-20T15:13:06;19.45;;;9.95;;
24585;SDS011;12743;52.262;6.172;2023-03-20T15:15:33;23.10;;;10.02;;
24585;SDS011;12743;52.262;6.172;2023-03-20T15:18:19;20.05;;;9.60;;
24585;SDS011;12743;52.262;6.172;2023-03-20T15:20:46;19.87;;;8.97;;
24585;SDS011;12743;52.262;6.172;2023-03-20T15:23:14;23.20;;;10.55;;
24585;SDS011;12743;52.262;6.172;2023-03-20T15:25:42;19.45;;;9.63;;
24585;SDS011;12743;52.262;6.172;2023-03-20T15:28:15;20.88;;;9.70;;
24585;SDS011;12743;52.262;6.172;2023-03-20T15:30:45;25.70;;;12.15;;
24585;SDS011;12743;52.262;6.172;2023-03-20T15:33:37;25.77;;;10.47;;
24585;SDS011;12743;52.262;6.172;2023-03-20T15:36:14;30.98;;;11.50;;
24585;SDS011;12743;52.262;6.172;2023-03-20T15:38:43;28.10;;;10.80;;
24585;SDS011;12743;52.262;6.172;2023-03-20T15:41:23;26.13;;;12.88;;
24585;SDS011;12743;52.262;6.172;2023-03-20T15:43:50;25.58;;;12.23;;
24585;SDS011;12743;52.262;6.172;2023-03-20T15:46:17;28.33;;;11.73;;
24585;SDS011;12743;52.262;6.172;2023-03-20T15:48:48;28.52;;;11.45;;
24585;SDS011;12743;52.262;6.172;2023-03-20T15:51:15;30.67;;;12.32;;
24585;SDS011;12743;52.262;6.172;2023-03-20T15:53:44;27.48;;;12.75;;
24585;SDS011;12743;52.262;6.172;2023-03-20T15:56:13;24.52;;;11.35;;
24585;SDS011;12743;52.262;6.172;2023-03-20T15:58:45;26.17;;;11.37;;
24585;SDS011;12743;52.262;6.172;2023-03-20T16:01:17;32.45;;;15.55;;
24585;SDS011;12743;52.262;6.172;2023-03-20T16:03:46;30.38;;;13.07;;
24585;SDS011;12743;52.262;6.172;2023-03-20T16:06:15;24.70;;;12.02;;
24585;SDS011;12743;52.262;6.172;2023-03-20T16:08:44;32.95;;;14.52;;
24585;SDS011;12743;52.262;6.172;2023-03-20T16:11:21;31.00;;;14.27;;
24585;SDS011;12743;52.262;6.172;2023-03-20T16:13:48;27.02;;;12.80;;
24585;SDS011;12743;52.262;6.172;2023-03-20T16:16:17;26.70;;;12.32;;
24585;SDS011;12743;52.262;6.172;2023-03-20T16:18:50;28.52;;;11.85;;
24585;SDS011;12743;52.262;6.172;2023-03-20T16:21:17;31.35;;;13.50;;
24585;SDS011;12743;52.262;6.172;2023-03-20T16:23:48;25.90;;;11.87;;
24585;SDS011;12743;52.262;6.172;2023-03-20T16:26:19;33.17;;;13.73;;
24585;SDS011;12743;52.262;6.172;2023-03-20T16:28:48;24.25;;;13.02;;
24585;SDS011;12743;52.262;6.172;2023-03-20T16:31:17;24.10;;;12.48;;
24585;SDS011;12743;52.262;6.172;2023-03-20T16:33:45;31.58;;;13.80;;
24585;SDS011;12743;52.262;6.172;2023-03-20T16:36:14;28.17;;;14.93;;
24585;SDS011;12743;52.262;6.172;2023-03-20T16:38:56;31.15;;;13.30;;
24585;SDS011;12743;52.262;6.172;2023-03-20T16:41:34;28.60;;;14.60;;
24585;SDS011;12743;52.262;6.172;2023-03-20T16:44:06;27.00;;;14.60;;
24585;SDS011;12743;52.262;6.172;2023-03-20T16:46:52;34.88;;;13.48;;
24585;SDS011;12743;52.262;6.172;2023-03-20T16:52:29;27.92;;;11.75;;
24585;SDS011;12743;52.262;6.172;2023-03-20T16:54:58;31.88;;;13.30;;
24585;SDS011;12743;52.262;6.172;2023-03-20T16:57:26;30.85;;;15.25;;
24585;SDS011;12743;52.262;6.172;2023-03-20T17:00:00;23.33;;;12.30;;
24585;SDS011;12743;52.262;6.172;2023-03-20T17:02:37;27.63;;;12.80;;
24585;SDS011;12743;52.262;6.172;2023-03-20T17:05:10;26.95;;;14.35;;
24585;SDS011;12743;52.262;6.172;2023-03-20T17:07:38;22.42;;;11.55;;
24585;SDS011;12743;52.262;6.172;2023-03-20T17:12:44;29.27;;;12.55;;
24585;SDS011;12743;52.262;6.172;2023-03-20T17:15:13;25.80;;;11.77;;
24585;SDS011;12743;52.262;6.172;2023-03-20T17:17:41;30.67;;;14.82;;
24585;SDS011;12743;52.262;6.172;2023-03-20T17:20:11;28.00;;;13.57;;
24585;SDS011;12743;52.262;6.172;2023-03-20T17:22:44;28.10;;;12.70;;
24585;SDS011;12743;52.262;6.172;2023-03-20T17:25:11;27.38;;;12.80;;
24585;SDS011;12743;52.262;6.172;2023-03-20T17:27:38;30.27;;;14.33;;